KFFO/FFO METAR and TAF weather

Enter ICAO airport designator
Station Type Date Time Source
KFFO METAR 2020/07/03 12:56 UTC NOAA

KFFO 031256Z AUTO 00000KT 10SM CLR 25/19 A3004 RMK AO2 SLP168 T02530185


Station Type Date Time Source
KFFO Decoded METAR 2020/07/03 12:56 UTC NOAA

Dayton / Wright-Patterson Air Force Base, OH, United States (KFFO) 39-50N 084-03W 251M
Jul 03, 2020 - 08:56 AM EDT / 2020.07.03 1256 UTC
Wind: Calm:0
Visibility: 10 mile(s):0
Sky conditions: clear
Temperature: 77.5 F (25.3 C)
Dew Point: 65.3 F (18.5 C)
Relative Humidity: 66%
Pressure (altimeter): 30.04 in. Hg (1017 hPa)
ob: KFFO 031256Z AUTO 00000KT 10SM CLR 25/19 A3004 RMK AO2 SLP168 T02530185
cycle: 13

Station Type Date Time Source
KFFO TAF 2020/07/03 11:07 UTC NOAA

TAF KFFO 031100Z 0311/0417 VRB06KT 9999 FEW050 QNH2996INS TX33/0320Z TN19/0311Z

Example: see airport list